Time;durP1;ratioP1;P1;durP2;ratioP2;P2;SDS_P1;SDS_P2;PMS_P1;PMS_P2;Temp;Humidity;BMP_temperature;BMP_pressure;BME280_temperature;BME280_humidity;BME280_pressure;Samples;Min_cycle;Max_cycle;Signal;HPM_P1;HPM_P2
2023/01/20 00:01:35;;;;;;;0.95;0.88;;;;;;;16.08;48.93;95876.00;10368448;28;20034;-28
2023/01/20 00:06:36;;;;;;;2.03;1.65;;;;;;;16.06;48.47;95875.19;10366569;28;20077;-27
2023/01/20 00:11:36;;;;;;;1.00;0.90;;;;;;;16.08;47.98;95885.25;10368433;28;20575;-27
2023/01/20 00:16:37;;;;;;;1.33;1.00;;;;;;;16.04;48.42;95881.06;10363255;28;20050;-28
2023/01/20 00:21:37;;;;;;;1.73;1.20;;;;;;;16.07;48.29;95893.66;10366156;28;20035;-27
2023/01/20 00:26:37;;;;;;;1.17;0.87;;;;;;;16.06;48.62;95897.91;10365529;28;20125;-27
2023/01/20 00:31:38;;;;;;;2.10;1.20;;;;;;;15.95;48.01;95881.09;10367406;28;20398;-28
2023/01/20 00:36:38;;;;;;;1.40;1.08;;;;;;;16.06;48.05;95907.13;10364529;28;20723;-28
2023/01/20 00:41:39;;;;;;;1.07;0.87;;;;;;;16.04;47.11;95909.66;10365302;28;20034;-28
2023/01/20 00:46:39;;;;;;;3.03;1.00;;;;;;;16.03;48.13;95907.97;10367135;28;20486;-27
2023/01/20 00:51:39;;;;;;;2.27;1.30;;;;;;;16.04;48.33;95914.72;10364163;28;20304;-27
2023/01/20 00:56:39;;;;;;;1.33;0.80;;;;;;;16.05;47.93;95920.63;10365447;28;20486;-28
2023/01/20 01:01:40;;;;;;;1.33;1.00;;;;;;;16.07;48.19;95929.00;10368115;28;20042;-28
2023/01/20 01:06:40;;;;;;;0.80;0.80;;;;;;;16.05;48.37;95926.50;10363784;28;20041;-28
2023/01/20 01:11:41;;;;;;;2.10;1.17;;;;;;;16.05;48.26;95941.66;10357801;28;20118;-27
2023/01/20 01:16:41;;;;;;;2.73;0.93;;;;;;;16.02;48.13;95945.88;10365890;28;20077;-28
2023/01/20 01:21:41;;;;;;;1.40;0.90;;;;;;;16.08;48.63;95955.94;10364593;28;20372;-27
2023/01/20 01:26:42;;;;;;;1.70;0.97;;;;;;;16.06;48.35;95957.63;10366522;28;20033;-27
2023/01/20 01:31:42;;;;;;;0.93;0.70;;;;;;;16.07;47.99;95967.75;10361294;28;20041;-27
2023/01/20 01:36:42;;;;;;;0.87;0.70;;;;;;;16.09;47.81;95978.66;10367448;28;20418;-27
2023/01/20 01:41:43;;;;;;;2.40;1.07;;;;;;;16.06;48.41;95987.94;10365741;28;20034;-27
2023/01/20 01:46:43;;;;;;;1.60;0.63;;;;;;;16.06;48.33;95988.78;10373597;28;20037;-27
2023/01/20 01:51:49;;;;;;;2.73;0.90;;;;;;;16.04;48.17;95994.69;10370963;28;20675;-28
2023/01/20 01:56:50;;;;;;;1.07;0.60;;;;;;;16.03;48.64;95998.88;10374419;28;20062;-28
2023/01/20 02:01:52;;;;;;;1.73;0.80;;;;;;;16.07;47.94;95995.50;10365795;28;20037;-27
2023/01/20 02:07:04;;;;;;;0.98;0.70;;;;;;;16.09;47.64;95992.97;10368932;28;20038;-27
2023/01/20 02:12:09;;;;;;;1.38;0.80;;;;;;;16.08;47.82;95993.81;10390267;28;20121;-27
2023/01/20 02:17:15;;;;;;;1.02;0.82;;;;;;;16.07;48.10;95997.19;10376593;28;20084;-26
2023/01/20 02:22:37;;;;;;;2.22;0.93;;;;;;;16.10;48.37;96005.59;10386612;28;20486;-26
2023/01/20 02:28:14;;;;;;;2.65;0.70;;;;;;;16.10;48.00;96004.78;10377482;28;20409;-28
2023/01/20 02:33:29;;;;;;;0.85;0.57;;;;;;;16.12;47.25;96003.91;10378962;28;20034;-28
2023/01/20 02:39:07;;;;;;;0.77;0.60;;;;;;;16.12;47.88;96014.00;10364254;28;20482;-28
2023/01/20 02:44:18;;;;;;;1.27;0.80;;;;;;;16.08;47.17;96012.34;10367045;28;20049;-27
2023/01/20 02:49:51;;;;;;;1.10;0.77;;;;;;;16.09;47.60;96018.22;10356560;28;20540;-26
2023/01/20 02:54:55;;;;;;;2.83;0.90;;;;;;;16.06;47.70;96018.22;10385125;28;20033;-28
2023/01/20 03:00:02;;;;;;;0.60;0.60;;;;;;;16.09;48.22;96026.63;10370026;28;20046;-27
2023/01/20 03:05:11;;;;;;;0.82;0.50;;;;;;;16.02;47.87;96021.63;10375818;28;20037;-27
2023/01/20 03:10:17;;;;;;;2.38;0.75;;;;;;;16.06;48.00;96043.47;10352681;28;20518;-28
2023/01/20 03:15:23;;;;;;;0.60;0.43;;;;;;;16.06;47.71;96046.00;10375035;28;20222;-27
2023/01/20 03:20:23;;;;;;;0.50;0.40;;;;;;;16.01;48.54;96045.16;10374984;28;20033;-27
2023/01/20 03:25:24;;;;;;;1.38;0.77;;;;;;;16.02;47.99;96055.25;10364275;28;20291;-27
2023/01/20 03:30:25;;;;;;;1.48;0.40;;;;;;;16.02;47.82;96059.47;10378897;28;20029;-27
2023/01/20 03:35:25;;;;;;;0.73;0.40;;;;;;;16.06;47.57;96068.72;10358511;28;20610;-28
2023/01/20 03:40:29;;;;;;;1.70;0.60;;;;;;;16.12;46.88;96064.50;10377765;28;20301;-28
2023/01/20 03:45:51;;;;;;;0.93;0.50;;;;;;;16.13;47.17;96070.41;10359232;28;20042;-28
2023/01/20 03:50:56;;;;;;;0.82;0.57;;;;;;;16.16;46.09;96080.47;10370959;28;20041;-28
2023/01/20 03:56:36;;;;;;;0.65;0.55;;;;;;;16.16;46.21;96086.38;10371281;28;20034;-28
2023/01/20 04:01:42;;;;;;;1.55;0.60;;;;;;;16.13;46.85;96076.28;10371149;28;20069;-29
2023/01/20 04:06:44;;;;;;;2.53;0.50;;;;;;;16.12;47.60;96081.34;10362220;28;20040;-28
2023/01/20 04:11:44;;;;;;;0.93;0.57;;;;;;;16.12;46.97;96083.88;10366523;28;20076;-28
2023/01/20 04:16:51;;;;;;;1.48;0.60;;;;;;;16.10;46.80;96090.63;10366334;28;20500;-27
2023/01/20 04:21:59;;;;;;;0.55;0.50;;;;;;;16.10;46.79;96098.19;10371496;28;20067;-27
2023/01/20 04:27:00;;;;;;;0.45;0.40;;;;;;;16.10;47.33;96100.72;10377426;28;20038;-28
2023/01/20 04:32:02;;;;;;;0.60;0.40;;;;;;;16.08;47.25;96108.28;10363439;28;20041;-28
2023/01/20 04:37:02;;;;;;;0.47;0.40;;;;;;;16.07;47.31;96114.19;10368168;28;20041;-27
2023/01/20 04:42:02;;;;;;;1.30;0.60;;;;;;;16.10;46.62;96124.25;10362512;28;20049;-27
2023/01/20 04:47:03;;;;;;;0.98;0.50;;;;;;;16.08;46.89;96123.44;10367686;28;20025;-28
2023/01/20 04:52:03;;;;;;;0.22;0.20;;;;;;;16.07;47.09;96131.00;10365137;28;20034;-27
2023/01/20 04:57:04;;;;;;;1.13;0.57;;;;;;;16.05;47.01;96133.53;10361098;28;20038;-27
2023/01/20 05:02:04;;;;;;;0.53;0.53;;;;;;;16.10;47.06;96141.94;10360839;28;20038;-28
2023/01/20 05:07:04;;;;;;;3.93;0.60;;;;;;;16.12;46.44;96150.34;10347004;28;20030;-28
2023/01/20 05:12:05;;;;;;;0.50;0.40;;;;;;;16.14;46.47;96158.78;10351526;28;20548;-28
2023/01/20 05:17:06;;;;;;;1.13;0.70;;;;;;;16.19;45.50;96162.13;10358866;28;20049;-28
2023/01/20 05:22:06;;;;;;;0.33;0.33;;;;;;;16.15;45.53;96180.66;10364431;28;20152;-28
2023/01/20 05:27:06;;;;;;;2.60;0.73;;;;;;;16.13;47.17;96186.56;10353962;28;20034;-28
2023/01/20 05:32:07;;;;;;;1.50;0.80;;;;;;;16.09;47.27;96195.81;10355422;28;20065;-28
2023/01/20 05:37:07;;;;;;;1.67;0.70;;;;;;;16.10;46.90;96206.75;10369480;28;20300;-28
2023/01/20 05:42:08;;;;;;;3.83;0.60;;;;;;;16.11;45.78;96218.53;10351208;28;20034;-28
2023/01/20 05:47:08;;;;;;;1.07;0.70;;;;;;;16.13;42.73;96221.91;10352280;28;20045;-29
2023/01/20 05:52:09;;;;;;;1.60;0.57;;;;;;;16.15;45.88;96231.16;10357653;28;20117;-27
2023/01/20 05:57:09;;;;;;;1.53;0.90;;;;;;;16.12;46.31;96236.19;10347433;28;20045;-27
2023/01/20 06:02:11;;;;;;;1.00;0.50;;;;;;;16.18;46.45;96245.50;10359450;28;20323;-28
2023/01/20 06:07:13;;;;;;;1.17;0.60;;;;;;;16.18;46.64;96251.38;10367564;28;20326;-28
2023/01/20 06:12:13;;;;;;;3.05;0.70;;;;;;;16.12;47.42;96251.34;10365178;28;20033;-28
2023/01/20 06:17:14;;;;;;;6.60;1.17;;;;;;;16.12;46.95;96250.53;10358228;28;20490;-27
2023/01/20 06:22:14;;;;;;;1.83;1.00;;;;;;;16.15;47.13;96261.47;10366995;28;20437;-27
2023/01/20 06:27:15;;;;;;;1.48;0.80;;;;;;;16.14;46.49;96274.09;10374136;28;20034;-28
2023/01/20 06:32:15;;;;;;;3.37;0.80;;;;;;;16.18;46.63;96281.66;10371865;28;20030;-27
2023/01/20 06:37:15;;;;;;;5.73;0.67;;;;;;;16.14;46.52;96277.47;10383796;28;20116;-28
2023/01/20 06:42:16;;;;;;;2.23;0.77;;;;;;;16.17;46.30;96295.13;10372678;28;20049;-27
2023/01/20 06:47:16;;;;;;;3.60;0.90;;;;;;;16.18;45.71;96309.44;10370944;28;20038;-28
2023/01/20 06:52:16;;;;;;;3.13;0.67;;;;;;;16.16;46.24;96313.66;10367739;28;20390;-27
2023/01/20 06:57:17;;;;;;;3.40;1.10;;;;;;;16.17;46.06;96315.34;10372061;28;20038;-27
2023/01/20 07:02:17;;;;;;;4.73;1.13;;;;;;;16.14;44.49;96324.59;10371075;28;20042;-27
2023/01/20 07:07:17;;;;;;;3.00;1.80;;;;;;;16.06;46.86;96331.31;10362101;28;20486;-28
2023/01/20 07:12:18;;;;;;;4.23;1.17;;;;;;;16.13;47.16;96343.94;10379424;28;20436;-27
2023/01/20 07:17:18;;;;;;;3.43;1.00;;;;;;;16.12;46.24;96347.31;10365957;28;20121;-30
2023/01/20 07:22:18;;;;;;;8.70;1.40;;;;;;;16.16;47.25;96359.13;10367336;28;20048;-28
2023/01/20 07:27:19;;;;;;;2.27;1.20;;;;;;;16.18;48.14;96361.66;10371377;28;20045;-28
2023/01/20 07:32:19;;;;;;;2.67;1.10;;;;;;;16.07;42.28;96369.19;10364206;28;20108;-27
2023/01/20 07:37:19;;;;;;;3.25;1.25;;;;;;;16.08;44.14;96380.13;10368402;28;20493;-28
2023/01/20 07:42:20;;;;;;;3.53;1.50;;;;;;;16.18;45.47;96390.25;10370797;28;20033;-28
2023/01/20 07:47:21;;;;;;;3.55;1.30;;;;;;;16.19;44.94;96394.47;10367654;28;20056;-27
2023/01/20 07:52:21;;;;;;;4.03;1.30;;;;;;;16.26;44.45;96401.25;10371555;28;20065;-28
2023/01/20 07:57:22;;;;;;;5.57;1.27;;;;;;;16.24;45.58;96397.88;10369545;28;20413;-28
2023/01/20 08:02:22;;;;;;;2.58;1.42;;;;;;;16.18;46.69;96404.59;10372722;28;20383;-28
2023/01/20 08:07:23;;;;;;;3.57;1.10;;;;;;;16.18;43.78;96418.03;10365059;28;20061;-28
2023/01/20 08:12:23;;;;;;;3.60;1.43;;;;;;;16.22;45.22;96424.81;10363307;28;20299;-28
2023/01/20 08:17:23;;;;;;;3.80;0.83;;;;;;;16.23;45.07;96430.69;10369833;28;20276;-27
2023/01/20 08:22:24;;;;;;;2.33;1.20;;;;;;;16.21;45.53;96430.66;10362092;28;20050;-28
2023/01/20 08:27:26;;;;;;;3.85;0.90;;;;;;;16.23;44.86;96445.84;10370127;28;20625;-28
2023/01/20 08:32:28;;;;;;;3.70;1.13;;;;;;;16.24;45.24;96448.38;10364448;28;20026;-27
2023/01/20 08:37:29;;;;;;;1.70;1.00;;;;;;;16.25;43.38;96460.19;10366673;28;20120;-28
2023/01/20 08:42:30;;;;;;;1.48;1.02;;;;;;;16.17;46.28;96460.97;10364120;28;20490;-28
2023/01/20 08:47:30;;;;;;;2.22;1.30;;;;;;;16.18;45.75;96463.50;10366407;28;20478;-28
2023/01/20 08:52:31;;;;;;;1.87;0.97;;;;;;;16.24;45.46;96478.69;10361673;28;20034;-28
2023/01/20 08:57:32;;;;;;;2.28;1.13;;;;;;;16.28;45.85;96482.09;10361901;28;20303;-27
2023/01/20 09:02:32;;;;;;;3.93;1.30;;;;;;;16.32;46.13;96492.22;10365930;28;20055;-28
2023/01/20 09:07:33;;;;;;;6.53;1.53;;;;;;;16.36;45.83;96496.41;10360901;28;20378;-28
2023/01/20 09:12:33;;;;;;;4.88;1.33;;;;;;;16.37;46.75;96503.19;10351169;28;20292;-28
2023/01/20 09:17:34;;;;;;;5.43;1.10;;;;;;;16.39;46.68;96499.00;10376724;28;20593;-26
2023/01/20 09:22:35;;;;;;;4.82;2.15;;;;;;;16.39;46.44;96514.19;10366165;28;20043;-24
2023/01/20 09:27:36;;;;;;;2.60;1.30;;;;;;;16.26;48.17;96522.47;10370239;28;20045;-26
2023/01/20 09:32:36;;;;;;;2.67;1.17;;;;;;;16.24;45.81;96524.16;10369799;28;20026;-24
2023/01/20 09:54:27;;;;;;;6.47;1.40;;;;;;;16.30;46.20;96544.38;10366578;28;20137;-28
2023/01/20 09:59:48;;;;;;;4.65;1.38;;;;;;;16.30;47.50;96541.03;10369322;28;20084;-27
2023/01/20 10:04:56;;;;;;;3.38;1.00;;;;;;;16.30;47.37;96544.38;10367646;28;20406;-28
2023/01/20 10:10:06;;;;;;;2.22;1.10;;;;;;;16.32;47.80;96537.69;10372796;28;20052;-28
2023/01/20 10:15:12;;;;;;;2.90;1.40;;;;;;;16.35;45.71;96535.16;10371499;28;20555;-28
2023/01/20 10:20:40;;;;;;;3.80;1.15;;;;;;;16.42;46.91;96538.59;10370462;28;20026;-26
2023/01/20 10:25:48;;;;;;;7.72;1.42;;;;;;;16.41;47.64;96537.75;10373955;28;20596;-27
2023/01/20 10:30:49;;;;;;;2.10;1.27;;;;;;;16.32;48.60;96542.72;10369239;28;20037;-28
2023/01/20 10:35:53;;;;;;;3.60;1.10;;;;;;;16.27;47.98;96539.31;10371060;28;20067;-28
2023/01/20 10:41:01;;;;;;;1.85;1.20;;;;;;;16.23;48.39;96541.81;10369025;28;20103;-27
2023/01/20 10:46:16;;;;;;;1.55;1.10;;;;;;;16.22;48.62;96535.94;10361680;28;20034;-28
2023/01/20 10:51:25;;;;;;;1.27;1.10;;;;;;;16.32;46.83;96539.34;10371357;28;20410;-27
2023/01/20 10:56:41;;;;;;;1.35;0.95;;;;;;;16.33;45.90;96538.50;10371688;28;20108;-27
2023/01/20 11:01:47;;;;;;;3.50;1.05;;;;;;;16.37;47.16;96556.25;10364323;28;20030;-28
2023/01/20 11:06:53;;;;;;;3.20;0.88;;;;;;;16.36;47.11;96546.94;10369719;28;20128;-28
2023/01/20 11:11:56;;;;;;;2.88;1.10;;;;;;;16.36;47.26;96549.47;10380497;28;20032;-27
2023/01/20 11:17:05;;;;;;;2.70;1.15;;;;;;;16.36;47.31;96546.13;10370296;28;20045;-27
2023/01/20 11:22:11;;;;;;;3.70;1.67;;;;;;;16.40;46.07;96551.22;10370624;28;20034;-27
2023/01/20 11:27:24;;;;;;;2.30;0.88;;;;;;;16.34;47.93;96556.22;10368329;28;20100;-27
2023/01/20 11:32:36;;;;;;;2.30;1.30;;;;;;;16.37;46.18;96561.28;10370166;28;20036;-27
2023/01/20 11:37:38;;;;;;;1.92;1.20;;;;;;;16.38;46.96;96559.63;10362023;28;20034;-28
2023/01/20 11:42:47;;;;;;;2.25;1.33;;;;;;;16.43;46.44;96568.06;10378924;28;20045;-27
2023/01/20 11:48:04;;;;;;;2.50;1.20;;;;;;;16.45;46.85;96568.94;10361938;28;20482;-28
2023/01/20 11:53:19;;;;;;;6.10;1.58;;;;;;;16.43;47.02;96558.81;10366137;28;20537;-28
2023/01/20 11:58:25;;;;;;;6.93;1.63;;;;;;;16.43;46.91;96556.28;10365912;28;20160;-30
2023/01/20 12:03:38;;;;;;;3.00;1.40;;;;;;;16.46;46.61;96568.09;10365867;28;20025;-28
2023/01/20 12:08:51;;;;;;;3.60;1.67;;;;;;;16.48;46.15;96554.66;10367614;28;20414;-27
2023/01/20 12:14:19;;;;;;;8.38;1.70;;;;;;;16.45;47.32;96559.66;10362680;28;20042;-27
2023/01/20 12:19:26;;;;;;;3.75;1.35;;;;;;;16.44;45.26;96563.03;10365647;28;21720;-29
2023/01/20 12:30:04;;;;;;;4.88;1.65;;;;;;;16.35;50.09;96567.16;10366781;28;20044;-26
2023/01/20 12:35:04;;;;;;;;;;;;;;;16.28;50.64;96561.22;10367626;28;20033;-27
2023/01/20 12:40:29;;;;;;;4.30;1.57;;;;;;;16.31;49.78;96566.31;10372078;28;19913;-27
2023/01/20 12:46:01;;;;;;;2.28;1.48;;;;;;;16.37;48.75;96566.34;10363763;28;20296;-28
2023/01/20 12:51:18;;;;;;;7.82;1.73;;;;;;;16.45;47.75;96572.28;10364520;28;20037;-27
2023/01/20 12:56:43;;;;;;;6.97;1.48;;;;;;;16.39;48.36;96574.81;10367458;28;20057;-28
2023/01/20 13:01:59;;;;;;;5.07;1.50;;;;;;;16.39;48.85;96574.81;10355027;28;20295;-27
2023/01/20 13:07:18;;;;;;;2.77;1.90;;;;;;;16.44;44.35;96580.72;10365699;28;20490;-28
2023/01/20 13:12:21;;;;;;;3.70;2.55;;;;;;;16.25;43.72;96573.84;10367267;28;20033;-27
2023/01/20 13:17:46;;;;;;;8.40;2.47;;;;;;;16.44;44.24;96575.66;10359765;28;20425;-28
2023/01/20 13:22:47;;;;;;;5.30;2.50;;;;;;;16.49;45.07;96573.16;10361803;28;20049;-28
2023/01/20 13:27:50;;;;;;;10.85;2.75;;;;;;;16.49;46.04;96581.59;10367364;28;20029;-28
2023/01/20 13:33:02;;;;;;;6.10;2.20;;;;;;;16.43;46.51;96576.50;10375828;28;20083;-28
2023/01/20 13:38:03;;;;;;;6.45;2.05;;;;;;;16.36;47.14;96574.75;10378442;28;20124;-28
2023/01/20 13:43:24;;;;;;;6.38;3.05;;;;;;;16.37;47.15;96581.50;10380252;28;20034;-27
2023/01/20 13:48:24;;;;;;;5.50;2.53;;;;;;;16.33;47.22;96591.56;10372224;28;20506;-29
2023/01/20 13:53:27;;;;;;;7.93;3.10;;;;;;;16.31;47.07;96600.81;10372414;28;20026;-28
2023/01/20 13:58:41;;;;;;;8.43;2.70;;;;;;;16.26;47.84;96588.16;10372885;28;20109;-28
2023/01/20 14:03:42;;;;;;;4.77;2.00;;;;;;;16.25;47.67;96593.19;10378942;28;20400;-29
2023/01/20 14:08:48;;;;;;;3.63;2.25;;;;;;;16.22;48.33;96604.13;10372723;28;20588;-27
2023/01/20 14:14:06;;;;;;;4.60;2.08;;;;;;;16.24;48.44;96610.03;10380491;28;20056;-27
2023/01/20 14:19:45;;;;;;;3.35;1.92;;;;;;;16.24;47.60;96607.50;10378403;28;20524;-27
2023/01/20 14:24:48;;;;;;;3.10;1.83;;;;;;;16.20;48.04;96608.31;10296729;28;20058;-27
2023/01/20 14:29:53;;;;;;;4.45;2.15;;;;;;;16.18;48.36;96606.63;10376486;28;20481;-28
2023/01/20 14:34:54;;;;;;;2.85;1.80;;;;;;;16.03;48.56;96594.72;10379198;28;20076;-29
2023/01/20 14:39:59;;;;;;;3.08;1.50;;;;;;;16.17;48.15;96615.00;10377074;28;20065;-28
2023/01/20 14:44:59;;;;;;;2.42;1.70;;;;;;;16.13;48.59;96621.72;10370844;28;20061;-27
2023/01/20 14:50:01;;;;;;;2.37;1.60;;;;;;;16.09;47.92;96612.44;10371504;28;20042;-28
2023/01/20 14:55:01;;;;;;;2.53;1.75;;;;;;;16.13;48.54;96631.00;10367411;28;20040;-26
2023/01/20 15:00:23;;;;;;;5.10;2.83;;;;;;;16.14;47.80;96628.50;10369848;28;20034;-29
2023/01/20 15:05:29;;;;;;;3.28;1.92;;;;;;;16.18;48.20;96630.19;10366048;28;20491;-27
2023/01/20 15:10:29;;;;;;;3.58;1.25;;;;;;;16.15;48.87;96635.22;10374416;28;20405;-27
2023/01/20 15:15:31;;;;;;;3.63;1.37;;;;;;;16.15;48.26;96635.22;10369158;28;20120;-28
2023/01/20 15:20:33;;;;;;;7.88;2.90;;;;;;;16.20;48.34;96633.56;10367499;28;20370;-28
2023/01/20 15:25:35;;;;;;;13.43;6.45;;;;;;;16.22;49.27;96636.97;10373623;28;20438;-27
2023/01/20 15:30:36;;;;;;;12.60;5.60;;;;;;;16.24;48.52;96645.41;10368128;28;20089;-28
2023/01/20 15:35:36;;;;;;;10.30;5.07;;;;;;;16.25;48.98;96648.75;10367477;28;20593;-27
2023/01/20 15:40:38;;;;;;;10.95;5.07;;;;;;;16.23;48.59;96648.75;10370920;28;20038;-27
2023/01/20 15:45:38;;;;;;;10.63;5.32;;;;;;;16.19;48.27;96647.03;10364737;28;20042;-28
2023/01/20 15:50:40;;;;;;;11.57;5.23;;;;;;;16.19;48.40;96654.59;10372358;28;20545;-28
2023/01/20 15:55:47;;;;;;;8.63;4.93;;;;;;;16.19;47.93;96651.25;10369757;28;20028;-27
2023/01/20 16:00:48;;;;;;;9.10;4.40;;;;;;;16.19;48.37;96662.19;10367263;28;20079;-28
2023/01/20 16:05:50;;;;;;;9.18;5.10;;;;;;;16.25;48.32;96661.38;10357009;28;20564;-27
2023/01/20 16:10:51;;;;;;;8.90;4.25;;;;;;;16.22;46.91;96669.81;10377353;28;20054;-28
2023/01/20 16:15:51;;;;;;;15.97;7.77;;;;;;;16.25;48.47;96677.41;10363232;28;20068;-28
2023/01/20 16:20:51;;;;;;;11.70;5.03;;;;;;;16.38;43.39;96674.16;10364439;28;20715;-27
2023/01/20 16:25:53;;;;;;;7.15;4.28;;;;;;;16.39;41.59;96680.91;10369299;28;20037;-28
2023/01/20 16:30:56;;;;;;;10.25;4.53;;;;;;;16.42;44.03;96680.06;10363139;28;20562;-27
2023/01/20 16:35:56;;;;;;;12.00;6.05;;;;;;;16.61;43.38;96689.50;10363446;28;20030;-28
2023/01/20 16:41:03;;;;;;;14.47;7.77;;;;;;;16.69;44.30;96701.34;10364903;28;20048;-28
2023/01/20 16:46:03;;;;;;;8.63;4.60;;;;;;;16.85;41.97;96703.13;10364081;28;20038;-28
2023/01/20 16:51:05;;;;;;;13.15;4.82;;;;;;;16.70;40.06;96707.25;10370641;28;20045;-26
2023/01/20 16:56:20;;;;;;;17.33;7.82;;;;;;;16.83;41.89;96709.88;10362116;28;20065;-27
2023/01/20 17:01:23;;;;;;;18.67;5.40;;;;;;;16.83;41.06;96709.88;10360234;28;20026;-27
2023/01/20 17:06:26;;;;;;;11.43;5.95;;;;;;;16.91;42.31;96714.13;10352309;28;20402;-29
2023/01/20 17:11:32;;;;;;;12.52;6.35;;;;;;;16.96;42.73;96721.72;10365674;28;20030;-28
2023/01/20 17:16:33;;;;;;;11.63;5.75;;;;;;;16.90;42.46;96729.28;10364837;28;20417;-28
2023/01/20 17:21:37;;;;;;;11.73;6.10;;;;;;;16.87;42.88;96731.78;10355060;28;20049;-28
2023/01/20 17:26:37;;;;;;;12.13;5.35;;;;;;;16.83;41.68;96725.03;10361162;28;20041;-27
2023/01/20 17:31:39;;;;;;;13.38;6.25;;;;;;;16.80;43.25;96732.56;10364575;28;20044;-29
2023/01/20 17:36:41;;;;;;;9.80;5.05;;;;;;;16.78;42.73;96735.13;10373520;28;20053;-27
2023/01/20 17:41:42;;;;;;;10.60;5.07;;;;;;;16.77;42.16;96740.16;10370064;28;20038;-28
2023/01/20 17:46:42;;;;;;;10.70;5.90;;;;;;;16.72;43.33;96736.75;10363956;28;20119;-28
2023/01/20 17:51:43;;;;;;;6.57;4.10;;;;;;;16.73;41.86;96731.69;10358115;28;20030;-28
2023/01/20 17:56:46;;;;;;;13.93;4.35;;;;;;;16.75;42.07;96741.81;10352096;28;20045;-27
2023/01/20 18:01:51;;;;;;;9.50;5.25;;;;;;;16.69;43.88;96739.25;10365658;28;20062;-28
2023/01/20 18:06:51;;;;;;;13.23;4.55;;;;;;;16.69;42.06;96734.19;10358307;28;20573;-27
2023/01/20 18:11:54;;;;;;;9.07;4.33;;;;;;;16.88;42.64;96748.66;10364429;28;20026;-28
2023/01/20 18:16:54;;;;;;;9.82;4.10;;;;;;;16.87;43.09;96752.00;10380500;28;20292;-35
2023/01/20 18:21:55;;;;;;;8.65;5.00;;;;;;;16.89;43.08;96755.44;10367791;28;20030;-28
2023/01/20 18:26:55;;;;;;;10.47;4.43;;;;;;;16.89;42.90;96750.38;10369450;28;20029;-29
2023/01/20 18:31:56;;;;;;;7.57;3.87;;;;;;;16.89;41.78;96757.94;10368994;28;20037;-28
2023/01/20 18:36:57;;;;;;;5.60;3.58;;;;;;;16.89;42.31;96763.84;10367742;28;20124;-28
2023/01/20 18:41:57;;;;;;;6.95;4.03;;;;;;;16.88;42.85;96759.63;10372552;28;20053;-28
2023/01/20 18:46:58;;;;;;;8.03;4.17;;;;;;;16.85;43.35;96759.59;10375304;28;20521;-28
2023/01/20 18:51:58;;;;;;;5.27;3.37;;;;;;;16.85;42.65;96759.59;10358228;28;20025;-27
2023/01/20 18:56:58;;;;;;;10.77;3.47;;;;;;;16.88;42.75;96761.28;10377352;28;20030;-28
2023/01/20 19:01:59;;;;;;;8.17;3.93;;;;;;;16.91;42.89;96758.78;10370621;28;20780;-28
2023/01/20 19:06:59;;;;;;;5.30;2.50;;;;;;;16.96;41.74;96767.25;10363680;28;20040;-27
2023/01/20 19:11:59;;;;;;;7.30;2.57;;;;;;;17.04;41.67;96778.25;10371597;28;20092;-27
2023/01/20 19:17:00;;;;;;;9.50;3.00;;;;;;;17.07;41.94;96778.31;10370043;28;20044;-28
2023/01/20 19:22:00;;;;;;;5.37;2.80;;;;;;;17.13;42.38;96788.44;10369774;28;20038;-27
2023/01/20 19:27:01;;;;;;;7.77;3.67;;;;;;;17.18;42.53;96779.19;10370743;28;20445;-28
2023/01/20 19:32:02;;;;;;;4.13;2.55;;;;;;;17.25;41.91;96780.94;10353221;28;20308;-28
2023/01/20 19:37:02;;;;;;;6.72;2.80;;;;;;;17.29;41.74;96787.69;10365515;28;20034;-28
2023/01/20 19:42:03;;;;;;;6.90;2.67;;;;;;;17.34;41.37;96786.03;10362655;28;20044;-27
2023/01/20 19:47:03;;;;;;;8.67;2.83;;;;;;;17.28;41.63;96793.59;10365957;28;20045;-28
2023/01/20 19:52:04;;;;;;;5.20;2.55;;;;;;;17.24;40.78;96779.25;10367715;28;20300;-28
2023/01/20 19:57:04;;;;;;;2.92;2.20;;;;;;;17.21;38.95;96784.25;10367631;28;20037;-28
2023/01/20 20:02:07;;;;;;;4.35;1.95;;;;;;;17.17;38.16;96783.41;10369828;28;20034;-28
2023/01/20 20:07:10;;;;;;;3.17;2.25;;;;;;;17.10;37.49;96781.69;10366430;28;20034;-28
2023/01/20 20:12:11;;;;;;;3.80;1.92;;;;;;;17.07;37.39;96781.66;10365013;28;20425;-28
2023/01/20 20:17:11;;;;;;;4.35;1.88;;;;;;;17.09;37.55;96785.03;10367761;28;20026;-28
2023/01/20 20:22:11;;;;;;;5.57;1.73;;;;;;;17.07;36.23;96786.72;10361167;28;20038;-28
2023/01/20 20:27:12;;;;;;;3.63;1.80;;;;;;;17.07;36.03;96788.41;10364578;28;20797;-28
2023/01/20 20:32:12;;;;;;;2.50;1.75;;;;;;;17.07;35.98;96790.94;10347763;28;20518;-29
2023/01/20 20:37:13;;;;;;;2.53;1.77;;;;;;;17.03;36.70;96784.16;10365009;28;20029;-28
2023/01/20 20:42:13;;;;;;;4.70;1.40;;;;;;;17.06;36.61;96784.19;10371459;28;20095;-28
2023/01/20 20:47:14;;;;;;;1.50;1.38;;;;;;;17.07;36.56;96776.59;10376610;28;20308;-28
2023/01/20 20:52:14;;;;;;;2.27;1.47;;;;;;;17.07;36.32;96784.19;10348893;28;20047;-28
2023/01/20 20:57:14;;;;;;;1.80;1.50;;;;;;;17.06;37.34;96785.03;10371756;28;20040;-28
2023/01/20 21:02:15;;;;;;;8.37;1.60;;;;;;;17.05;35.92;96780.81;10367689;28;20030;-28
2023/01/20 21:07:15;;;;;;;1.77;1.30;;;;;;;17.02;36.04;96782.47;10363934;28;20661;-28
2023/01/20 21:12:16;;;;;;;3.27;1.47;;;;;;;17.03;34.68;96785.00;10362551;28;20537;-28
2023/01/20 21:17:17;;;;;;;2.95;1.55;;;;;;;16.98;35.10;96781.59;10361952;28;20044;-28
2023/01/20 21:22:17;;;;;;;3.23;1.30;;;;;;;17.00;35.27;96774.84;10360996;28;20040;-27
2023/01/20 21:27:17;;;;;;;1.20;0.90;;;;;;;17.06;35.82;96784.19;10357566;28;20026;-28
2023/01/20 21:32:18;;;;;;;1.60;1.00;;;;;;;17.10;35.57;96778.31;10361097;28;20045;-28
2023/01/20 21:37:19;;;;;;;1.33;1.07;;;;;;;17.08;35.15;96778.28;10361539;28;20816;-28
2023/01/20 21:42:19;;;;;;;1.83;1.27;;;;;;;17.09;35.71;96789.25;10363313;28;20045;-28
2023/01/20 21:47:20;;;;;;;2.10;1.27;;;;;;;17.04;36.16;96786.72;10361374;28;20048;-28
2023/01/20 21:52:41;;;;;;;2.70;1.40;;;;;;;17.09;34.50;96779.97;10356617;28;20049;-27
2023/01/20 21:57:41;;;;;;;1.80;1.23;;;;;;;17.15;34.37;96779.19;10357709;28;20029;-28
2023/01/20 22:02:46;;;;;;;1.88;1.30;;;;;;;17.13;33.95;96774.13;10373321;28;20030;-28
2023/01/20 22:07:47;;;;;;;1.58;1.25;;;;;;;17.09;34.63;96784.22;10366174;28;20124;-27
2023/01/20 22:12:47;;;;;;;5.25;1.85;;;;;;;17.03;36.74;96790.06;10366370;28;20042;-28
2023/01/20 22:17:47;;;;;;;2.70;1.90;;;;;;;17.01;36.82;96793.44;10366925;28;20042;-26
2023/01/20 22:22:48;;;;;;;3.83;1.90;;;;;;;16.99;37.39;96798.47;10362194;28;20038;-28
2023/01/20 22:27:48;;;;;;;3.30;1.63;;;;;;;17.00;38.06;96794.25;10369679;28;20088;-28
2023/01/20 22:32:49;;;;;;;3.05;1.80;;;;;;;17.00;37.76;96796.78;10367701;28;20062;-28
2023/01/20 22:37:49;;;;;;;6.63;2.40;;;;;;;17.11;36.69;96806.16;10365234;28;20419;-28
2023/01/20 22:42:49;;;;;;;2.27;1.77;;;;;;;17.16;37.19;96808.72;10367993;28;20100;-28
2023/01/20 22:47:50;;;;;;;2.37;1.67;;;;;;;17.12;38.92;96809.50;10370431;28;20029;-28
2023/01/20 22:52:50;;;;;;;5.20;1.65;;;;;;;17.07;37.94;96816.25;10376718;28;20034;-28
2023/01/20 22:57:50;;;;;;;3.17;1.47;;;;;;;17.05;38.29;96812.81;10365367;28;20049;-28
2023/01/20 23:02:51;;;;;;;2.95;1.58;;;;;;;17.02;38.78;96810.28;10376257;28;20196;-28
2023/01/20 23:07:51;;;;;;;1.70;1.40;;;;;;;17.01;38.41;96816.19;10369167;28;20042;-28
2023/01/20 23:12:51;;;;;;;2.40;1.67;;;;;;;17.00;39.38;96814.50;10366258;28;20109;-28
2023/01/20 23:17:52;;;;;;;2.50;1.57;;;;;;;16.97;38.68;96812.78;10377889;28;20037;-27
2023/01/20 23:22:52;;;;;;;1.65;1.30;;;;;;;16.99;39.71;96817.88;10366057;28;20307;-28
2023/01/20 23:27:53;;;;;;;2.97;1.50;;;;;;;16.98;40.31;96818.72;10365194;28;20048;-28
2023/01/20 23:32:53;;;;;;;3.50;1.77;;;;;;;16.98;39.39;96813.66;10360171;28;20042;-28
2023/01/20 23:37:53;;;;;;;2.70;1.30;;;;;;;16.97;38.64;96810.25;10369330;28;20476;-28
2023/01/20 23:42:54;;;;;;;2.10;1.03;;;;;;;17.02;39.84;96811.16;10363678;28;20410;-28
2023/01/20 23:47:54;;;;;;;1.70;1.10;;;;;;;17.11;37.86;96808.69;10362911;28;20038;-28
2023/01/20 23:52:55;;;;;;;1.35;1.25;;;;;;;17.13;37.47;96807.00;10360308;28;20414;-27